sensor_id;sensor_type;location;lat;lon;timestamp;pressure;altitude;pressure_sealevel;temperature;humidity
13068;BME280;6600;51.362;6.686;2023-05-09T00:01:19;101338.00;;;16.62;100.00
13068;BME280;6600;51.362;6.686;2023-05-09T00:03:44;101340.13;;;16.60;100.00
13068;BME280;6600;51.362;6.686;2023-05-09T00:06:10;101313.91;;;16.60;100.00
13068;BME280;6600;51.362;6.686;2023-05-09T00:08:35;101329.88;;;16.62;100.00
13068;BME280;6600;51.362;6.686;2023-05-09T00:11:02;101330.63;;;16.57;100.00
13068;BME280;6600;51.362;6.686;2023-05-09T00:13:27;101327.66;;;16.59;100.00
13068;BME280;6600;51.362;6.686;2023-05-09T00:15:53;101327.91;;;16.57;100.00
13068;BME280;6600;51.362;6.686;2023-05-09T00:18:19;101328.47;;;16.59;100.00
13068;BME280;6600;51.362;6.686;2023-05-09T00:20:46;101330.63;;;16.57;100.00
13068;BME280;6600;51.362;6.686;2023-05-09T00:23:11;101327.75;;;16.52;100.00
13068;BME280;6600;51.362;6.686;2023-05-09T00:25:37;101324.00;;;16.53;100.00
13068;BME280;6600;51.362;6.686;2023-05-09T00:28:02;101322.34;;;16.52;100.00
13068;BME280;6600;51.362;6.686;2023-05-09T00:30:27;101315.78;;;16.48;100.00
13068;BME280;6600;51.362;6.686;2023-05-09T00:32:53;101317.91;;;16.46;100.00
13068;BME280;6600;51.362;6.686;2023-05-09T00:35:18;101310.63;;;16.47;100.00
13068;BME280;6600;51.362;6.686;2023-05-09T00:37:43;101314.16;;;16.47;100.00
13068;BME280;6600;51.362;6.686;2023-05-09T00:40:15;101290.84;;;16.46;100.00
13068;BME280;6600;51.362;6.686;2023-05-09T00:42:40;101293.56;;;16.46;100.00
13068;BME280;6600;51.362;6.686;2023-05-09T00:45:06;101292.50;;;16.47;100.00
13068;BME280;6600;51.362;6.686;2023-05-09T00:47:32;101291.53;;;16.53;100.00
13068;BME280;6600;51.362;6.686;2023-05-09T00:49:58;101284.97;;;16.49;100.00
13068;BME280;6600;51.362;6.686;2023-05-09T00:52:25;101286.13;;;16.53;100.00
13068;BME280;6600;51.362;6.686;2023-05-09T00:54:51;101275.69;;;16.57;100.00
13068;BME280;6600;51.362;6.686;2023-05-09T00:57:17;101286.25;;;16.58;100.00
13068;BME280;6600;51.362;6.686;2023-05-09T00:59:43;101278.47;;;16.62;100.00
13068;BME280;6600;51.362;6.686;2023-05-09T01:02:08;101276.09;;;16.65;100.00
13068;BME280;6600;51.362;6.686;2023-05-09T01:04:34;101271.78;;;16.64;100.00
13068;BME280;6600;51.362;6.686;2023-05-09T01:07:03;101273.88;;;16.62;100.00
13068;BME280;6600;51.362;6.686;2023-05-09T01:09:55;101263.16;;;16.67;100.00
13068;BME280;6600;51.362;6.686;2023-05-09T01:12:53;101263.72;;;16.70;100.00
13068;BME280;6600;51.362;6.686;2023-05-09T01:15:42;101258.66;;;16.73;100.00
13068;BME280;6600;51.362;6.686;2023-05-09T01:18:18;101259.50;;;16.74;100.00
13068;BME280;6600;51.362;6.686;2023-05-09T01:20:50;101252.75;;;16.76;100.00
13068;BME280;6600;51.362;6.686;2023-05-09T01:29:46;101252.38;;;16.84;100.00
13068;BME280;6600;51.362;6.686;2023-05-09T01:32:17;101255.91;;;16.85;100.00
13068;BME280;6600;51.362;6.686;2023-05-09T01:34:44;101246.13;;;16.84;100.00
13068;BME280;6600;51.362;6.686;2023-05-09T01:37:12;101240.16;;;16.82;100.00
13068;BME280;6600;51.362;6.686;2023-05-09T01:39:40;101246.72;;;16.86;100.00
13068;BME280;6600;51.362;6.686;2023-05-09T01:42:07;101232.59;;;16.84;100.00
13068;BME280;6600;51.362;6.686;2023-05-09T01:44:41;101240.50;;;16.85;100.00
13068;BME280;6600;51.362;6.686;2023-05-09T01:47:07;101235.91;;;16.86;100.00
13068;BME280;6600;51.362;6.686;2023-05-09T01:49:35;101227.19;;;16.84;100.00
13068;BME280;6600;51.362;6.686;2023-05-09T01:52:04;101235.31;;;16.84;100.00
13068;BME280;6600;51.362;6.686;2023-05-09T01:54:32;101234.75;;;16.82;100.00
13068;BME280;6600;51.362;6.686;2023-05-09T01:56:58;101238.50;;;16.81;100.00
13068;BME280;6600;51.362;6.686;2023-05-09T01:59:26;101235.56;;;16.82;100.00
13068;BME280;6600;51.362;6.686;2023-05-09T02:01:52;101232.88;;;16.82;100.00
13068;BME280;6600;51.362;6.686;2023-05-09T02:04:19;101238.00;;;16.84;100.00
13068;BME280;6600;51.362;6.686;2023-05-09T02:06:47;101239.56;;;16.80;100.00
13068;BME280;6600;51.362;6.686;2023-05-09T02:09:16;101235.56;;;16.82;100.00
13068;BME280;6600;51.362;6.686;2023-05-09T02:11:42;101239.34;;;16.81;100.00
13068;BME280;6600;51.362;6.686;2023-05-09T02:14:07;101231.44;;;16.80;100.00
13068;BME280;6600;51.362;6.686;2023-05-09T02:16:33;101226.28;;;16.78;100.00
13068;BME280;6600;51.362;6.686;2023-05-09T02:18:58;101228.50;;;16.81;100.00
13068;BME280;6600;51.362;6.686;2023-05-09T02:21:23;101222.28;;;16.81;100.00
13068;BME280;6600;51.362;6.686;2023-05-09T02:23:49;101221.78;;;16.84;100.00
13068;BME280;6600;51.362;6.686;2023-05-09T02:26:14;101219.78;;;16.79;100.00
13068;BME280;6600;51.362;6.686;2023-05-09T02:28:43;101223.75;;;16.88;100.00
13068;BME280;6600;51.362;6.686;2023-05-09T02:31:11;101229.66;;;16.85;100.00
13068;BME280;6600;51.362;6.686;2023-05-09T02:33:38;101227.69;;;16.81;100.00
13068;BME280;6600;51.362;6.686;2023-05-09T02:36:04;101232.59;;;16.84;100.00
13068;BME280;6600;51.362;6.686;2023-05-09T02:38:30;101232.13;;;16.87;100.00
13068;BME280;6600;51.362;6.686;2023-05-09T02:40:56;101222.84;;;16.83;100.00
13068;BME280;6600;51.362;6.686;2023-05-09T02:43:21;101227.28;;;16.89;100.00
13068;BME280;6600;51.362;6.686;2023-05-09T02:45:47;101221.88;;;16.89;100.00
13068;BME280;6600;51.362;6.686;2023-05-09T02:48:12;101225.53;;;16.83;100.00
13068;BME280;6600;51.362;6.686;2023-05-09T02:50:38;101226.22;;;16.90;100.00
13068;BME280;6600;51.362;6.686;2023-05-09T02:53:04;101226.69;;;16.87;100.00
13068;BME280;6600;51.362;6.686;2023-05-09T02:55:29;101217.53;;;16.88;100.00
13068;BME280;6600;51.362;6.686;2023-05-09T02:57:55;101218.09;;;16.90;100.00
13068;BME280;6600;51.362;6.686;2023-05-09T03:00:21;101215.38;;;16.90;100.00
13068;BME280;6600;51.362;6.686;2023-05-09T03:02:49;101216.19;;;16.90;100.00
13068;BME280;6600;51.362;6.686;2023-05-09T03:05:15;101204.22;;;16.86;100.00
13068;BME280;6600;51.362;6.686;2023-05-09T03:07:40;101214.25;;;16.86;100.00
13068;BME280;6600;51.362;6.686;2023-05-09T03:10:06;101212.34;;;16.86;100.00
13068;BME280;6600;51.362;6.686;2023-05-09T03:12:31;101207.41;;;16.83;100.00
13068;BME280;6600;51.362;6.686;2023-05-09T03:14:56;101209.31;;;16.83;100.00
13068;BME280;6600;51.362;6.686;2023-05-09T03:17:22;101209.31;;;16.83;100.00
13068;BME280;6600;51.362;6.686;2023-05-09T03:19:47;101207.19;;;16.85;100.00
13068;BME280;6600;51.362;6.686;2023-05-09T03:22:13;101207.75;;;16.87;100.00
13068;BME280;6600;51.362;6.686;2023-05-09T03:24:38;101199.63;;;16.87;100.00
13068;BME280;6600;51.362;6.686;2023-05-09T03:27:04;101206.69;;;16.88;100.00
13068;BME280;6600;51.362;6.686;2023-05-09T03:29:29;101209.16;;;16.89;100.00
13068;BME280;6600;51.362;6.686;2023-05-09T03:31:54;101212.09;;;16.88;100.00
13068;BME280;6600;51.362;6.686;2023-05-09T03:34:19;101207.84;;;16.92;100.00
13068;BME280;6600;51.362;6.686;2023-05-09T03:36:45;101204.56;;;16.90;100.00
13068;BME280;6600;51.362;6.686;2023-05-09T03:39:10;101207.03;;;16.91;100.00
13068;BME280;6600;51.362;6.686;2023-05-09T03:41:36;101204.06;;;16.93;100.00
13068;BME280;6600;51.362;6.686;2023-05-09T03:44:02;101198.06;;;16.91;100.00
13068;BME280;6600;51.362;6.686;2023-05-09T03:46:28;101194.22;;;16.87;100.00
13068;BME280;6600;51.362;6.686;2023-05-09T03:48:53;101196.34;;;16.85;100.00
13068;BME280;6600;51.362;6.686;2023-05-09T03:51:18;101194.00;;;16.88;100.00
13068;BME280;6600;51.362;6.686;2023-05-09T03:53:45;101182.91;;;16.90;100.00
13068;BME280;6600;51.362;6.686;2023-05-09T03:56:11;101175.03;;;16.88;100.00
13068;BME280;6600;51.362;6.686;2023-05-09T03:58:37;101170.44;;;16.89;100.00
13068;BME280;6600;51.362;6.686;2023-05-09T04:01:02;101170.94;;;16.86;100.00
13068;BME280;6600;51.362;6.686;2023-05-09T04:03:28;101173.72;;;16.91;100.00
13068;BME280;6600;51.362;6.686;2023-05-09T04:05:53;101171.84;;;16.91;100.00
13068;BME280;6600;51.362;6.686;2023-05-09T04:08:18;101170.44;;;16.89;100.00
13068;BME280;6600;51.362;6.686;2023-05-09T04:10:44;101169.38;;;16.90;100.00
13068;BME280;6600;51.362;6.686;2023-05-09T04:13:09;101169.63;;;16.88;100.00
13068;BME280;6600;51.362;6.686;2023-05-09T04:15:35;101164.22;;;16.88;100.00
13068;BME280;6600;51.362;6.686;2023-05-09T04:18:00;101165.03;;;16.89;100.00
13068;BME280;6600;51.362;6.686;2023-05-09T04:20:26;101162.88;;;16.91;100.00
13068;BME280;6600;51.362;6.686;2023-05-09T04:22:51;101162.06;;;16.90;100.00
13068;BME280;6600;51.362;6.686;2023-05-09T04:25:16;101153.38;;;16.88;100.00
13068;BME280;6600;51.362;6.686;2023-05-09T04:27:44;101155.16;;;16.83;100.00
13068;BME280;6600;51.362;6.686;2023-05-09T04:30:10;101151.41;;;16.84;100.00
13068;BME280;6600;51.362;6.686;2023-05-09T04:32:36;101152.22;;;16.84;100.00
13068;BME280;6600;51.362;6.686;2023-05-09T04:35:01;101150.09;;;16.86;100.00
13068;BME280;6600;51.362;6.686;2023-05-09T04:37:27;101152.56;;;16.88;100.00
13068;BME280;6600;51.362;6.686;2023-05-09T04:39:53;101153.22;;;16.95;100.00
13068;BME280;6600;51.362;6.686;2023-05-09T04:42:18;101146.16;;;16.94;100.00
13068;BME280;6600;51.362;6.686;2023-05-09T04:44:43;101151.56;;;16.94;100.00
13068;BME280;6600;51.362;6.686;2023-05-09T04:47:09;101151.56;;;16.94;100.00
13068;BME280;6600;51.362;6.686;2023-05-09T04:49:34;101154.53;;;16.92;100.00
13068;BME280;6600;51.362;6.686;2023-05-09T04:51:59;101156.47;;;16.97;100.00
13068;BME280;6600;51.362;6.686;2023-05-09T04:54:25;101160.59;;;16.99;100.00
13068;BME280;6600;51.362;6.686;2023-05-09T04:56:50;101149.78;;;16.99;100.00
13068;BME280;6600;51.362;6.686;2023-05-09T04:59:16;101148.44;;;17.02;100.00
13068;BME280;6600;51.362;6.686;2023-05-09T05:01:41;101143.69;;;17.09;100.00
13068;BME280;6600;51.362;6.686;2023-05-09T05:04:07;101149.09;;;17.09;100.00
13068;BME280;6600;51.362;6.686;2023-05-09T05:06:32;101143.69;;;17.09;100.00
13068;BME280;6600;51.362;6.686;2023-05-09T05:08:58;101145.41;;;17.15;100.00
13068;BME280;6600;51.362;6.686;2023-05-09T05:11:23;101139.25;;;17.20;100.00
13068;BME280;6600;51.362;6.686;2023-05-09T05:13:48;101141.69;;;17.21;100.00
13068;BME280;6600;51.362;6.686;2023-05-09T05:16:13;101131.69;;;17.22;100.00
13068;BME280;6600;51.362;6.686;2023-05-09T05:18:39;101134.66;;;17.20;100.00
13068;BME280;6600;51.362;6.686;2023-05-09T05:21:04;101133.72;;;17.31;100.00
13068;BME280;6600;51.362;6.686;2023-05-09T05:23:29;101126.22;;;17.38;100.00
13068;BME280;6600;51.362;6.686;2023-05-09T05:25:55;101126.81;;;17.40;100.00
13068;BME280;6600;51.362;6.686;2023-05-09T05:28:20;101121.94;;;17.42;100.00
13068;BME280;6600;51.362;6.686;2023-05-09T05:30:45;101116.09;;;17.50;100.00
13068;BME280;6600;51.362;6.686;2023-05-09T05:33:10;101117.91;;;17.61;100.00
13068;BME280;6600;51.362;6.686;2023-05-09T05:35:36;101111.28;;;17.74;100.00
13068;BME280;6600;51.362;6.686;2023-05-09T05:38:01;101112.97;;;17.80;100.00
13068;BME280;6600;51.362;6.686;2023-05-09T05:40:26;101113.59;;;17.87;100.00
13068;BME280;6600;51.362;6.686;2023-05-09T05:42:52;101112.03;;;17.91;100.00
13068;BME280;6600;51.362;6.686;2023-05-09T05:45:18;101102.50;;;17.89;100.00
13068;BME280;6600;51.362;6.686;2023-05-09T05:47:44;101105.22;;;17.89;100.00
13068;BME280;6600;51.362;6.686;2023-05-09T05:50:09;101109.81;;;17.88;100.00
13068;BME280;6600;51.362;6.686;2023-05-09T05:52:39;101098.25;;;17.98;100.00
13068;BME280;6600;51.362;6.686;2023-05-09T05:55:04;101098.56;;;18.01;100.00
13068;BME280;6600;51.362;6.686;2023-05-09T05:57:30;101101.94;;;18.13;100.00
13068;BME280;6600;51.362;6.686;2023-05-09T05:59:56;101093.09;;;18.23;100.00
13068;BME280;6600;51.362;6.686;2023-05-09T06:02:21;101087.63;;;18.18;100.00
13068;BME280;6600;51.362;6.686;2023-05-09T06:04:46;101090.44;;;18.28;100.00
13068;BME280;6600;51.362;6.686;2023-05-09T06:07:13;101093.56;;;18.15;100.00
13068;BME280;6600;51.362;6.686;2023-05-09T06:09:39;101094.06;;;18.12;100.00
13068;BME280;6600;51.362;6.686;2023-05-09T06:12:04;101082.72;;;18.15;100.00
13068;BME280;6600;51.362;6.686;2023-05-09T06:14:30;101074.63;;;18.20;100.00
13068;BME280;6600;51.362;6.686;2023-05-09T06:16:55;101068.69;;;18.23;100.00
13068;BME280;6600;51.362;6.686;2023-05-09T06:19:21;101066.84;;;18.29;100.00
13068;BME280;6600;51.362;6.686;2023-05-09T06:21:46;101059.06;;;18.37;100.00
13068;BME280;6600;51.362;6.686;2023-05-09T06:24:11;101059.56;;;18.61;100.00
13068;BME280;6600;51.362;6.686;2023-05-09T06:26:37;101047.97;;;18.76;99.96
13068;BME280;6600;51.362;6.686;2023-05-09T06:29:03;101045.28;;;18.81;98.60
13068;BME280;6600;51.362;6.686;2023-05-09T06:31:29;101043.16;;;18.88;98.51
13068;BME280;6600;51.362;6.686;2023-05-09T06:33:55;101044.34;;;19.02;99.10
13068;BME280;6600;51.362;6.686;2023-05-09T06:36:20;101036.50;;;19.10;97.37
13068;BME280;6600;51.362;6.686;2023-05-09T06:38:45;101031.34;;;19.14;96.75
13068;BME280;6600;51.362;6.686;2023-05-09T06:41:11;101033.03;;;19.25;96.51
13068;BME280;6600;51.362;6.686;2023-05-09T06:43:36;101027.66;;;19.35;96.50
13068;BME280;6600;51.362;6.686;2023-05-09T06:46:01;101026.59;;;19.41;95.53
13068;BME280;6600;51.362;6.686;2023-05-09T06:48:27;101024.97;;;19.40;95.47
13068;BME280;6600;51.362;6.686;2023-05-09T06:50:52;101023.94;;;19.46;94.97
13068;BME280;6600;51.362;6.686;2023-05-09T06:53:17;101020.13;;;19.47;94.59
13068;BME280;6600;51.362;6.686;2023-05-09T06:55:43;101013.53;;;19.33;95.13
13068;BME280;6600;51.362;6.686;2023-05-09T06:58:08;101013.59;;;19.43;94.39
13068;BME280;6600;51.362;6.686;2023-05-09T07:00:35;101019.53;;;19.40;94.98
13068;BME280;6600;51.362;6.686;2023-05-09T07:03:00;101016.31;;;19.48;94.62
13068;BME280;6600;51.362;6.686;2023-05-09T07:05:25;101005.44;;;19.43;95.46
13068;BME280;6600;51.362;6.686;2023-05-09T07:07:51;101012.44;;;19.39;94.76
13068;BME280;6600;51.362;6.686;2023-05-09T07:10:19;101007.63;;;19.46;95.57
13068;BME280;6600;51.362;6.686;2023-05-09T07:12:46;100997.28;;;19.43;95.53
13068;BME280;6600;51.362;6.686;2023-05-09T07:15:11;101005.38;;;19.38;95.43
13068;BME280;6600;51.362;6.686;2023-05-09T07:17:36;101000.53;;;19.45;95.49
13068;BME280;6600;51.362;6.686;2023-05-09T07:20:02;100995.13;;;19.55;95.91
13068;BME280;6600;51.362;6.686;2023-05-09T07:22:28;100995.13;;;19.55;95.00
13068;BME280;6600;51.362;6.686;2023-05-09T07:24:54;100994.09;;;19.61;94.89
13068;BME280;6600;51.362;6.686;2023-05-09T07:27:19;100987.00;;;19.60;95.34
13068;BME280;6600;51.362;6.686;2023-05-09T07:29:44;100982.66;;;19.64;94.47
13068;BME280;6600;51.362;6.686;2023-05-09T07:32:10;100987.56;;;19.67;94.74
13068;BME280;6600;51.362;6.686;2023-05-09T07:34:35;100982.13;;;19.67;94.23
13068;BME280;6600;51.362;6.686;2023-05-09T07:37:00;100981.06;;;19.69;95.15
13068;BME280;6600;51.362;6.686;2023-05-09T07:39:26;100978.91;;;19.86;94.12
13068;BME280;6600;51.362;6.686;2023-05-09T07:41:51;100977.81;;;19.92;93.84
13068;BME280;6600;51.362;6.686;2023-05-09T07:44:16;100979.97;;;19.90;94.02
13068;BME280;6600;51.362;6.686;2023-05-09T07:46:42;100979.16;;;20.04;93.27
13068;BME280;6600;51.362;6.686;2023-05-09T07:49:07;100966.94;;;20.02;91.86
13068;BME280;6600;51.362;6.686;2023-05-09T07:51:33;100965.31;;;20.16;92.04
13068;BME280;6600;51.362;6.686;2023-05-09T07:53:58;100959.31;;;20.34;91.49
13068;BME280;6600;51.362;6.686;2023-05-09T07:56:23;100960.94;;;20.35;91.50
13068;BME280;6600;51.362;6.686;2023-05-09T07:58:50;100956.06;;;20.37;90.42
13068;BME280;6600;51.362;6.686;2023-05-09T08:01:15;100951.66;;;20.56;90.13
13068;BME280;6600;51.362;6.686;2023-05-09T08:03:41;100955.72;;;20.69;90.25
13068;BME280;6600;51.362;6.686;2023-05-09T08:06:06;100954.66;;;20.60;89.43
13068;BME280;6600;51.362;6.686;2023-05-09T08:08:31;100952.19;;;20.63;87.26
13068;BME280;6600;51.362;6.686;2023-05-09T08:10:57;100944.53;;;20.81;86.60
13068;BME280;6600;51.362;6.686;2023-05-09T08:13:23;100937.44;;;20.80;87.20
13068;BME280;6600;51.362;6.686;2023-05-09T08:15:48;100936.03;;;20.92;86.87
13068;BME280;6600;51.362;6.686;2023-05-09T08:18:13;100941.19;;;20.99;85.19
13068;BME280;6600;51.362;6.686;2023-05-09T08:20:39;100936.31;;;20.91;85.39
13068;BME280;6600;51.362;6.686;2023-05-09T08:23:05;100931.97;;;20.85;85.23
13068;BME280;6600;51.362;6.686;2023-05-09T08:25:30;100928.69;;;20.83;86.71
13068;BME280;6600;51.362;6.686;2023-05-09T08:27:56;100920.03;;;20.71;84.47
13068;BME280;6600;51.362;6.686;2023-05-09T08:30:21;100924.03;;;20.93;83.86
13068;BME280;6600;51.362;6.686;2023-05-09T08:32:46;100911.72;;;21.11;83.20
13068;BME280;6600;51.362;6.686;2023-05-09T08:35:12;100908.88;;;21.31;81.41
13068;BME280;6600;51.362;6.686;2023-05-09T08:37:37;100914.16;;;21.61;81.77
13068;BME280;6600;51.362;6.686;2023-05-09T08:40:03;100910.03;;;21.64;79.94
13068;BME280;6600;51.362;6.686;2023-05-09T08:42:32;100903.56;;;21.89;78.85
13068;BME280;6600;51.362;6.686;2023-05-09T08:45:00;100906.09;;;21.80;78.22
13068;BME280;6600;51.362;6.686;2023-05-09T08:47:26;100904.94;;;21.91;78.49
13068;BME280;6600;51.362;6.686;2023-05-09T08:49:53;100888.56;;;21.91;76.71
13068;BME280;6600;51.362;6.686;2023-05-09T08:52:19;100889.09;;;21.93;77.95
13068;BME280;6600;51.362;6.686;2023-05-09T08:54:44;100886.47;;;22.12;76.99
13068;BME280;6600;51.362;6.686;2023-05-09T08:57:10;100881.53;;;22.14;76.27
13068;BME280;6600;51.362;6.686;2023-05-09T08:59:36;100879.63;;;22.38;75.96
13068;BME280;6600;51.362;6.686;2023-05-09T09:02:05;100874.06;;;22.48;75.26
13068;BME280;6600;51.362;6.686;2023-05-09T09:04:31;100873.03;;;22.44;74.96
13068;BME280;6600;51.362;6.686;2023-05-09T09:06:57;100870.81;;;22.46;75.80
13068;BME280;6600;51.362;6.686;2023-05-09T09:09:23;100868.00;;;22.51;75.44
13068;BME280;6600;51.362;6.686;2023-05-09T09:11:49;100869.28;;;22.35;75.49
13068;BME280;6600;51.362;6.686;2023-05-09T09:14:21;100860.00;;;22.12;75.95
13068;BME280;6600;51.362;6.686;2023-05-09T09:16:48;100857.16;;;22.23;75.44
13068;BME280;6600;51.362;6.686;2023-05-09T09:19:16;100855.69;;;22.06;74.69
13068;BME280;6600;51.362;6.686;2023-05-09T09:21:44;100865.84;;;22.25;76.01
13068;BME280;6600;51.362;6.686;2023-05-09T09:24:13;100854.44;;;22.23;75.47
13068;BME280;6600;51.362;6.686;2023-05-09T09:26:45;100856.31;;;22.27;74.96
13068;BME280;6600;51.362;6.686;2023-05-09T09:29:12;100854.13;;;22.24;75.10
13068;BME280;6600;51.362;6.686;2023-05-09T09:31:38;100846.47;;;22.26;73.67
13068;BME280;6600;51.362;6.686;2023-05-09T09:34:03;100837.75;;;22.24;73.71
13068;BME280;6600;51.362;6.686;2023-05-09T09:36:30;100838.50;;;22.06;74.67
13068;BME280;6600;51.362;6.686;2023-05-09T09:39:00;100837.69;;;22.05;73.93
13068;BME280;6600;51.362;6.686;2023-05-09T09:41:39;100831.31;;;22.15;74.46
13068;BME280;6600;51.362;6.686;2023-05-09T09:44:09;100830.69;;;21.94;75.17
13068;BME280;6600;51.362;6.686;2023-05-09T09:46:52;100828.72;;;22.00;75.65
13068;BME280;6600;51.362;6.686;2023-05-09T09:49:20;100822.13;;;22.06;74.97
13068;BME280;6600;51.362;6.686;2023-05-09T09:51:53;100811.56;;;22.23;75.15
13068;BME280;6600;51.362;6.686;2023-05-09T09:54:19;100819.81;;;22.18;74.06
13068;BME280;6600;51.362;6.686;2023-05-09T09:56:49;100810.63;;;22.09;73.91
13068;BME280;6600;51.362;6.686;2023-05-09T09:59:18;100801.31;;;22.10;73.52
13068;BME280;6600;51.362;6.686;2023-05-09T10:02:03;100802.25;;;22.00;72.72
13068;BME280;6600;51.362;6.686;2023-05-09T10:04:31;100805.75;;;22.06;73.11
13068;BME280;6600;51.362;6.686;2023-05-09T10:06:59;100804.75;;;21.97;73.11
13068;BME280;6600;51.362;6.686;2023-05-09T10:09:26;100801.44;;;22.00;72.46
13068;BME280;6600;51.362;6.686;2023-05-09T10:11:53;100811.38;;;21.91;72.17
13068;BME280;6600;51.362;6.686;2023-05-09T10:14:20;100788.44;;;21.92;73.75
13068;BME280;6600;51.362;6.686;2023-05-09T10:16:47;100792.03;;;22.11;74.05
13068;BME280;6600;51.362;6.686;2023-05-09T10:19:15;100794.97;;;22.20;74.17
13068;BME280;6600;51.362;6.686;2023-05-09T10:21:42;100790.09;;;22.17;73.68
13068;BME280;6600;51.362;6.686;2023-05-09T10:24:07;100778.22;;;22.26;73.84
13068;BME280;6600;51.362;6.686;2023-05-09T10:26:36;100779.97;;;22.41;75.42
13068;BME280;6600;51.362;6.686;2023-05-09T10:29:07;100775.53;;;22.45;74.87
13068;BME280;6600;51.362;6.686;2023-05-09T10:31:35;100778.09;;;22.36;72.89
13068;BME280;6600;51.362;6.686;2023-05-09T10:34:06;100765.75;;;22.62;74.40
13068;BME280;6600;51.362;6.686;2023-05-09T10:36:33;100766.97;;;22.51;74.24
13068;BME280;6600;51.362;6.686;2023-05-09T10:38:59;100759.44;;;22.67;74.60
13068;BME280;6600;51.362;6.686;2023-05-09T10:41:26;100757.28;;;22.83;73.50
13068;BME280;6600;51.362;6.686;2023-05-09T10:43:54;100757.06;;;22.98;73.18
13068;BME280;6600;51.362;6.686;2023-05-09T10:46:22;100753.06;;;22.90;73.03
13068;BME280;6600;51.362;6.686;2023-05-09T10:48:48;100745.69;;;22.91;71.91
13068;BME280;6600;51.362;6.686;2023-05-09T10:51:14;100749.31;;;23.05;71.32
13068;BME280;6600;51.362;6.686;2023-05-09T10:53:45;100747.00;;;23.12;72.35
13068;BME280;6600;51.362;6.686;2023-05-09T10:58:48;100736.78;;;23.17;73.84
13068;BME280;6600;51.362;6.686;2023-05-09T11:01:13;100722.16;;;23.27;70.47
13068;BME280;6600;51.362;6.686;2023-05-09T11:03:54;100718.47;;;23.18;72.11
13068;BME280;6600;51.362;6.686;2023-05-09T11:09:32;100711.63;;;23.34;71.33
13068;BME280;6600;51.362;6.686;2023-05-09T11:17:07;100712.09;;;23.55;71.10
13068;BME280;6600;51.362;6.686;2023-05-09T11:22:15;100697.84;;;23.72;69.81
13068;BME280;6600;51.362;6.686;2023-05-09T11:24:48;100698.69;;;23.86;69.19
13068;BME280;6600;51.362;6.686;2023-05-09T11:32:15;100682.22;;;23.72;71.74
13068;BME280;6600;51.362;6.686;2023-05-09T11:34:44;100683.97;;;23.82;70.22
13068;BME280;6600;51.362;6.686;2023-05-09T11:37:12;100677.06;;;23.98;70.75
13068;BME280;6600;51.362;6.686;2023-05-09T11:39:58;100678.28;;;23.92;69.50
13068;BME280;6600;51.362;6.686;2023-05-09T11:42:26;100664.50;;;23.70;69.52
13068;BME280;6600;51.362;6.686;2023-05-09T11:44:52;100667.16;;;23.61;70.50
13068;BME280;6600;51.362;6.686;2023-05-09T11:47:18;100652.03;;;23.63;71.13
13068;BME280;6600;51.362;6.686;2023-05-09T11:49:44;100654.38;;;23.56;72.29
13068;BME280;6600;51.362;6.686;2023-05-09T11:52:09;100640.53;;;23.34;71.06
13068;BME280;6600;51.362;6.686;2023-05-09T11:54:37;100640.53;;;23.34;72.28
13068;BME280;6600;51.362;6.686;2023-05-09T11:57:04;100639.34;;;23.40;73.00
13068;BME280;6600;51.362;6.686;2023-05-09T11:59:30;100624.22;;;23.29;72.59
13068;BME280;6600;51.362;6.686;2023-05-09T12:01:55;100632.44;;;23.29;71.46
13068;BME280;6600;51.362;6.686;2023-05-09T12:04:20;100625.44;;;23.23;71.98
13068;BME280;6600;51.362;6.686;2023-05-09T12:06:46;100618.66;;;23.34;72.47
13068;BME280;6600;51.362;6.686;2023-05-09T12:09:13;100621.47;;;23.02;72.44
13068;BME280;6600;51.362;6.686;2023-05-09T12:11:46;100615.34;;;22.91;72.42
13068;BME280;6600;51.362;6.686;2023-05-09T12:14:25;100624.84;;;22.61;72.43
13068;BME280;6600;51.362;6.686;2023-05-09T12:16:50;100623.28;;;22.55;73.33
13068;BME280;6600;51.362;6.686;2023-05-09T12:19:17;100614.81;;;22.57;76.08
13068;BME280;6600;51.362;6.686;2023-05-09T12:21:42;100605.72;;;22.24;77.40
13068;BME280;6600;51.362;6.686;2023-05-09T12:24:08;100608.41;;;22.29;78.85
13068;BME280;6600;51.362;6.686;2023-05-09T12:26:33;100600.28;;;22.24;78.88
13068;BME280;6600;51.362;6.686;2023-05-09T12:28:59;100603.84;;;22.06;79.42
13068;BME280;6600;51.362;6.686;2023-05-09T12:31:24;100597.47;;;21.92;81.56
13068;BME280;6600;51.362;6.686;2023-05-09T12:33:50;100597.50;;;21.87;82.36
13068;BME280;6600;51.362;6.686;2023-05-09T12:36:15;100594.63;;;21.78;83.14
13068;BME280;6600;51.362;6.686;2023-05-09T12:38:51;100587.38;;;21.68;83.08
13068;BME280;6600;51.362;6.686;2023-05-09T12:41:16;100603.16;;;21.24;84.77
13068;BME280;6600;51.362;6.686;2023-05-09T12:43:47;100609.66;;;21.28;85.04
13068;BME280;6600;51.362;6.686;2023-05-09T12:46:16;100607.97;;;21.03;85.37
13068;BME280;6600;51.362;6.686;2023-05-09T12:48:42;100621.09;;;20.67;87.96
13068;BME280;6600;51.362;6.686;2023-05-09T12:51:08;100620.53;;;20.32;92.45
13068;BME280;6600;51.362;6.686;2023-05-09T12:53:38;100611.63;;;20.11;95.87
13068;BME280;6600;51.362;6.686;2023-05-09T12:56:11;100616.72;;;19.74;98.87
13068;BME280;6600;51.362;6.686;2023-05-09T12:58:38;100619.00;;;19.31;99.62
13068;BME280;6600;51.362;6.686;2023-05-09T13:01:04;100614.69;;;19.15;100.00
13068;BME280;6600;51.362;6.686;2023-05-09T13:03:30;100623.38;;;19.07;100.00
13068;BME280;6600;51.362;6.686;2023-05-09T13:06:03;100628.84;;;18.72;100.00
13068;BME280;6600;51.362;6.686;2023-05-09T13:08:31;100622.88;;;18.85;100.00
13068;BME280;6600;51.362;6.686;2023-05-09T13:10:58;100632.38;;;18.82;100.00
13068;BME280;6600;51.362;6.686;2023-05-09T13:13:24;100638.09;;;18.86;100.00
13068;BME280;6600;51.362;6.686;2023-05-09T13:15:51;100628.31;;;18.64;100.00
13068;BME280;6600;51.362;6.686;2023-05-09T13:18:16;100619.63;;;18.78;100.00